sensor_id;sensor_type;location;lat;lon;timestamp;P1;durP1;ratioP1;P2;durP2;ratioP2
75112;SDS011;63692;47.338;8.520;2023-05-18T04:56:20;12.20;;;4.55;;
75112;SDS011;63692;47.338;8.520;2023-05-18T04:58:46;10.65;;;4.70;;
75112;SDS011;63692;47.338;8.520;2023-05-18T05:01:13;9.80;;;5.00;;
75112;SDS011;63692;47.338;8.520;2023-05-18T05:03:40;11.55;;;4.43;;
75112;SDS011;63692;47.338;8.520;2023-05-18T05:06:06;9.02;;;3.90;;
75112;SDS011;63692;47.338;8.520;2023-05-18T05:08:32;9.20;;;4.60;;
75112;SDS011;63692;47.338;8.520;2023-05-18T05:10:58;9.73;;;4.47;;
75112;SDS011;63692;47.338;8.520;2023-05-18T05:13:25;10.93;;;4.22;;
75112;SDS011;63692;47.338;8.520;2023-05-18T05:15:50;7.90;;;4.25;;
75112;SDS011;63692;47.338;8.520;2023-05-18T05:18:16;8.10;;;4.38;;
75112;SDS011;63692;47.338;8.520;2023-05-18T05:20:42;9.50;;;4.22;;
75112;SDS011;63692;47.338;8.520;2023-05-18T05:23:07;10.27;;;4.30;;
75112;SDS011;63692;47.338;8.520;2023-05-18T05:25:33;9.95;;;4.60;;
75112;SDS011;63692;47.338;8.520;2023-05-18T05:27:58;12.73;;;4.60;;
75112;SDS011;63692;47.338;8.520;2023-05-18T05:30:24;11.10;;;4.43;;
75112;SDS011;63692;47.338;8.520;2023-05-18T05:32:50;7.75;;;4.10;;
75112;SDS011;63692;47.338;8.520;2023-05-18T05:35:15;11.88;;;4.00;;
75112;SDS011;63692;47.338;8.520;2023-05-18T05:37:41;9.10;;;4.28;;
75112;SDS011;63692;47.338;8.520;2023-05-18T05:40:06;10.23;;;4.15;;
75112;SDS011;63692;47.338;8.520;2023-05-18T05:42:33;11.45;;;4.47;;
75112;SDS011;63692;47.338;8.520;2023-05-18T05:47:31;9.13;;;4.53;;
75112;SDS011;63692;47.338;8.520;2023-05-18T05:49:57;11.18;;;4.70;;
75112;SDS011;63692;47.338;8.520;2023-05-18T05:52:22;10.77;;;4.28;;
75112;SDS011;63692;47.338;8.520;2023-05-18T05:54:49;12.07;;;4.53;;
75112;SDS011;63692;47.338;8.520;2023-05-18T06:02:17;12.18;;;4.88;;
75112;SDS011;63692;47.338;8.520;2023-05-18T06:12:13;9.35;;;4.50;;
75112;SDS011;63692;47.338;8.520;2023-05-18T06:14:38;12.93;;;4.55;;
75112;SDS011;63692;47.338;8.520;2023-05-18T06:17:07;11.35;;;4.70;;
75112;SDS011;63692;47.338;8.520;2023-05-18T06:22:02;11.05;;;4.97;;
75112;SDS011;63692;47.338;8.520;2023-05-18T06:24:27;10.65;;;4.40;;
75112;SDS011;63692;47.338;8.520;2023-05-18T06:26:53;8.52;;;4.60;;
75112;SDS011;63692;47.338;8.520;2023-05-18T06:31:46;9.00;;;4.55;;
75112;SDS011;63692;47.338;8.520;2023-05-18T06:34:12;11.00;;;5.20;;
75112;SDS011;63692;47.338;8.520;2023-05-18T06:36:37;12.20;;;4.88;;
75112;SDS011;63692;47.338;8.520;2023-05-18T06:39:03;13.63;;;4.82;;
75112;SDS011;63692;47.338;8.520;2023-05-18T06:41:32;11.70;;;4.93;;
75112;SDS011;63692;47.338;8.520;2023-05-18T06:46:25;15.95;;;5.10;;
75112;SDS011;63692;47.338;8.520;2023-05-18T06:48:51;11.65;;;4.90;;
75112;SDS011;63692;47.338;8.520;2023-05-18T06:51:17;13.38;;;5.28;;
75112;SDS011;63692;47.338;8.520;2023-05-18T06:53:43;13.35;;;4.60;;
75112;SDS011;63692;47.338;8.520;2023-05-18T06:56:08;9.18;;;4.60;;
75112;SDS011;63692;47.338;8.520;2023-05-18T06:58:37;9.30;;;4.07;;
75112;SDS011;63692;47.338;8.520;2023-05-18T07:01:03;9.48;;;4.30;;
75112;SDS011;63692;47.338;8.520;2023-05-18T07:03:29;9.73;;;4.50;;
75112;SDS011;63692;47.338;8.520;2023-05-18T07:05:56;13.73;;;5.50;;
75112;SDS011;63692;47.338;8.520;2023-05-18T07:08:22;10.90;;;4.72;;
75112;SDS011;63692;47.338;8.520;2023-05-18T07:10:49;9.25;;;5.00;;
75112;SDS011;63692;47.338;8.520;2023-05-18T07:13:14;10.57;;;4.40;;
75112;SDS011;63692;47.338;8.520;2023-05-18T07:15:40;9.20;;;4.72;;
75112;SDS011;63692;47.338;8.520;2023-05-18T07:18:06;11.73;;;5.07;;
75112;SDS011;63692;47.338;8.520;2023-05-18T07:20:31;12.10;;;4.50;;
75112;SDS011;63692;47.338;8.520;2023-05-18T07:22:57;9.20;;;4.70;;
75112;SDS011;63692;47.338;8.520;2023-05-18T07:25:23;12.65;;;5.00;;
75112;SDS011;63692;47.338;8.520;2023-05-18T07:27:48;12.63;;;5.10;;
75112;SDS011;63692;47.338;8.520;2023-05-18T07:30:16;9.43;;;4.97;;
75112;SDS011;63692;47.338;8.520;2023-05-18T07:32:42;11.05;;;4.63;;
75112;SDS011;63692;47.338;8.520;2023-05-18T07:35:09;10.57;;;5.28;;
75112;SDS011;63692;47.338;8.520;2023-05-18T07:37:35;11.55;;;5.20;;
75112;SDS011;63692;47.338;8.520;2023-05-18T07:40:01;8.98;;;4.22;;
75112;SDS011;63692;47.338;8.520;2023-05-18T07:42:28;11.57;;;4.68;;
75112;SDS011;63692;47.338;8.520;2023-05-18T07:44:54;12.23;;;4.60;;
75112;SDS011;63692;47.338;8.520;2023-05-18T07:47:19;11.25;;;4.47;;
75112;SDS011;63692;47.338;8.520;2023-05-18T07:49:45;11.23;;;4.60;;
75112;SDS011;63692;47.338;8.520;2023-05-18T07:52:12;10.85;;;4.40;;
75112;SDS011;63692;47.338;8.520;2023-05-18T07:54:37;10.57;;;5.15;;
75112;SDS011;63692;47.338;8.520;2023-05-18T07:57:03;9.35;;;4.82;;
75112;SDS011;63692;47.338;8.520;2023-05-18T07:59:29;8.63;;;4.45;;
75112;SDS011;63692;47.338;8.520;2023-05-18T08:01:55;12.57;;;4.75;;
75112;SDS011;63692;47.338;8.520;2023-05-18T08:04:22;11.68;;;5.03;;
75112;SDS011;63692;47.338;8.520;2023-05-18T08:06:48;11.88;;;5.15;;
75112;SDS011;63692;47.338;8.520;2023-05-18T08:09:14;10.02;;;4.70;;
75112;SDS011;63692;47.338;8.520;2023-05-18T08:11:41;10.25;;;4.45;;
75112;SDS011;63692;47.338;8.520;2023-05-18T08:14:06;7.47;;;4.25;;
75112;SDS011;63692;47.338;8.520;2023-05-18T08:16:32;10.80;;;4.70;;
75112;SDS011;63692;47.338;8.520;2023-05-18T08:19:01;9.00;;;4.60;;
75112;SDS011;63692;47.338;8.520;2023-05-18T08:21:27;10.80;;;4.53;;
75112;SDS011;63692;47.338;8.520;2023-05-18T08:23:53;12.90;;;5.05;;
75112;SDS011;63692;47.338;8.520;2023-05-18T08:26:19;9.45;;;4.68;;
75112;SDS011;63692;47.338;8.520;2023-05-18T08:28:46;7.78;;;4.15;;
75112;SDS011;63692;47.338;8.520;2023-05-18T08:31:13;11.60;;;5.25;;
75112;SDS011;63692;47.338;8.520;2023-05-18T08:33:39;7.88;;;4.35;;
75112;SDS011;63692;47.338;8.520;2023-05-18T08:36:06;10.13;;;4.13;;
75112;SDS011;63692;47.338;8.520;2023-05-18T08:38:32;8.30;;;4.53;;
75112;SDS011;63692;47.338;8.520;2023-05-18T08:41:18;7.85;;;4.05;;
75112;SDS011;63692;47.338;8.520;2023-05-18T08:43:53;10.25;;;5.15;;
75112;SDS011;63692;47.338;8.520;2023-05-18T08:46:39;10.85;;;4.35;;
75112;SDS011;63692;47.338;8.520;2023-05-18T08:49:06;9.40;;;4.15;;
75112;SDS011;63692;47.338;8.520;2023-05-18T08:51:34;9.90;;;4.78;;
75112;SDS011;63692;47.338;8.520;2023-05-18T08:54:01;9.40;;;4.95;;
75112;SDS011;63692;47.338;8.520;2023-05-18T08:56:30;8.45;;;3.95;;
75112;SDS011;63692;47.338;8.520;2023-05-18T08:58:58;10.35;;;4.53;;
75112;SDS011;63692;47.338;8.520;2023-05-18T09:01:26;11.55;;;5.03;;
75112;SDS011;63692;47.338;8.520;2023-05-18T09:03:54;11.32;;;4.80;;
75112;SDS011;63692;47.338;8.520;2023-05-18T09:06:22;9.07;;;4.93;;
75112;SDS011;63692;47.338;8.520;2023-05-18T09:08:52;11.80;;;4.97;;
75112;SDS011;63692;47.338;8.520;2023-05-18T09:11:18;10.95;;;4.70;;
75112;SDS011;63692;47.338;8.520;2023-05-18T09:13:49;9.63;;;4.65;;
75112;SDS011;63692;47.338;8.520;2023-05-18T09:16:15;9.93;;;4.47;;
75112;SDS011;63692;47.338;8.520;2023-05-18T09:18:41;9.27;;;4.63;;
75112;SDS011;63692;47.338;8.520;2023-05-18T09:21:06;9.32;;;4.30;;
75112;SDS011;63692;47.338;8.520;2023-05-18T09:23:32;9.30;;;4.40;;
75112;SDS011;63692;47.338;8.520;2023-05-18T09:25:58;10.45;;;4.57;;
75112;SDS011;63692;47.338;8.520;2023-05-18T09:28:25;7.82;;;4.38;;
75112;SDS011;63692;47.338;8.520;2023-05-18T09:30:59;9.90;;;4.50;;
75112;SDS011;63692;47.338;8.520;2023-05-18T09:33:24;9.95;;;4.32;;
75112;SDS011;63692;47.338;8.520;2023-05-18T09:35:50;8.98;;;4.57;;
75112;SDS011;63692;47.338;8.520;2023-05-18T09:38:16;10.60;;;4.30;;
75112;SDS011;63692;47.338;8.520;2023-05-18T09:40:46;8.98;;;4.53;;
75112;SDS011;63692;47.338;8.520;2023-05-18T09:43:13;9.30;;;4.60;;
75112;SDS011;63692;47.338;8.520;2023-05-18T09:45:44;12.38;;;4.57;;
75112;SDS011;63692;47.338;8.520;2023-05-18T09:48:12;7.82;;;4.13;;
75112;SDS011;63692;47.338;8.520;2023-05-18T09:50:38;10.52;;;4.68;;
75112;SDS011;63692;47.338;8.520;2023-05-18T09:53:08;9.70;;;4.35;;
75112;SDS011;63692;47.338;8.520;2023-05-18T09:55:43;9.93;;;4.35;;
75112;SDS011;63692;47.338;8.520;2023-05-18T09:58:13;10.65;;;4.47;;
75112;SDS011;63692;47.338;8.520;2023-05-18T10:00:40;9.70;;;4.40;;
75112;SDS011;63692;47.338;8.520;2023-05-18T10:03:17;10.25;;;4.20;;
75112;SDS011;63692;47.338;8.520;2023-05-18T10:05:45;7.78;;;4.10;;
75112;SDS011;63692;47.338;8.520;2023-05-18T10:08:12;7.35;;;4.18;;
75112;SDS011;63692;47.338;8.520;2023-05-18T10:10:40;9.20;;;4.40;;
75112;SDS011;63692;47.338;8.520;2023-05-18T10:13:08;6.93;;;4.10;;
75112;SDS011;63692;47.338;8.520;2023-05-18T10:15:45;9.02;;;4.45;;
75112;SDS011;63692;47.338;8.520;2023-05-18T10:18:19;7.38;;;4.10;;
75112;SDS011;63692;47.338;8.520;2023-05-18T10:23:17;11.80;;;5.65;;
75112;SDS011;63692;47.338;8.520;2023-05-18T10:25:44;9.57;;;4.78;;
75112;SDS011;63692;47.338;8.520;2023-05-18T10:28:10;9.25;;;3.90;;
75112;SDS011;63692;47.338;8.520;2023-05-18T10:30:39;12.23;;;3.88;;
75112;SDS011;63692;47.338;8.520;2023-05-18T10:33:07;7.05;;;4.07;;
75112;SDS011;63692;47.338;8.520;2023-05-18T10:35:36;7.43;;;3.60;;
75112;SDS011;63692;47.338;8.520;2023-05-18T10:38:02;6.18;;;3.40;;
75112;SDS011;63692;47.338;8.520;2023-05-18T10:40:31;10.48;;;3.70;;
75112;SDS011;63692;47.338;8.520;2023-05-18T10:42:58;8.35;;;3.50;;
75112;SDS011;63692;47.338;8.520;2023-05-18T10:45:27;10.23;;;3.95;;
75112;SDS011;63692;47.338;8.520;2023-05-18T10:47:53;11.55;;;4.60;;
75112;SDS011;63692;47.338;8.520;2023-05-18T10:50:23;7.43;;;3.70;;
75112;SDS011;63692;47.338;8.520;2023-05-18T10:52:50;6.70;;;3.40;;
75112;SDS011;63692;47.338;8.520;2023-05-18T10:55:17;6.53;;;3.63;;
75112;SDS011;63692;47.338;8.520;2023-05-18T10:57:45;8.18;;;3.33;;
75112;SDS011;63692;47.338;8.520;2023-05-18T11:00:16;8.70;;;3.47;;
75112;SDS011;63692;47.338;8.520;2023-05-18T11:02:43;8.98;;;3.70;;
75112;SDS011;63692;47.338;8.520;2023-05-18T11:05:09;7.28;;;3.50;;
75112;SDS011;63692;47.338;8.520;2023-05-18T11:07:35;6.32;;;3.22;;
75112;SDS011;63692;47.338;8.520;2023-05-18T11:10:02;7.47;;;3.90;;
75112;SDS011;63692;47.338;8.520;2023-05-18T11:12:32;7.70;;;4.10;;
75112;SDS011;63692;47.338;8.520;2023-05-18T11:15:00;7.00;;;3.65;;
75112;SDS011;63692;47.338;8.520;2023-05-18T11:17:27;6.15;;;3.20;;
75112;SDS011;63692;47.338;8.520;2023-05-18T11:22:46;10.60;;;4.10;;
75112;SDS011;63692;47.338;8.520;2023-05-18T11:27:57;9.20;;;3.78;;
75112;SDS011;63692;47.338;8.520;2023-05-18T11:30:29;8.43;;;3.67;;
75112;SDS011;63692;47.338;8.520;2023-05-18T11:33:07;6.88;;;3.75;;
75112;SDS011;63692;47.338;8.520;2023-05-18T11:35:52;7.07;;;3.85;;
75112;SDS011;63692;47.338;8.520;2023-05-18T11:38:19;8.02;;;3.55;;
75112;SDS011;63692;47.338;8.520;2023-05-18T11:40:46;7.10;;;3.40;;
75112;SDS011;63692;47.338;8.520;2023-05-18T11:43:16;10.55;;;3.70;;
75112;SDS011;63692;47.338;8.520;2023-05-18T11:45:54;7.20;;;3.83;;
75112;SDS011;63692;47.338;8.520;2023-05-18T11:48:22;8.98;;;3.80;;
75112;SDS011;63692;47.338;8.520;2023-05-18T11:50:51;6.93;;;3.60;;
75112;SDS011;63692;47.338;8.520;2023-05-18T11:53:17;9.27;;;4.03;;
75112;SDS011;63692;47.338;8.520;2023-05-18T11:55:46;8.57;;;3.97;;
75112;SDS011;63692;47.338;8.520;2023-05-18T11:58:15;8.35;;;3.55;;
75112;SDS011;63692;47.338;8.520;2023-05-18T12:00:44;6.88;;;3.80;;
75112;SDS011;63692;47.338;8.520;2023-05-18T12:03:12;10.52;;;3.50;;
75112;SDS011;63692;47.338;8.520;2023-05-18T12:05:38;7.22;;;3.25;;
75112;SDS011;63692;47.338;8.520;2023-05-18T12:08:06;8.20;;;3.08;;
75112;SDS011;63692;47.338;8.520;2023-05-18T12:10:33;9.13;;;3.35;;
75112;SDS011;63692;47.338;8.520;2023-05-18T12:13:01;9.30;;;3.50;;
75112;SDS011;63692;47.338;8.520;2023-05-18T12:18:52;6.95;;;2.88;;
75112;SDS011;63692;47.338;8.520;2023-05-18T12:21:21;10.13;;;3.45;;
75112;SDS011;63692;47.338;8.520;2023-05-18T12:23:47;7.45;;;3.53;;
75112;SDS011;63692;47.338;8.520;2023-05-18T12:26:13;6.82;;;3.50;;
75112;SDS011;63692;47.338;8.520;2023-05-18T12:28:41;10.10;;;3.78;;
75112;SDS011;63692;47.338;8.520;2023-05-18T12:31:10;5.68;;;3.38;;
75112;SDS011;63692;47.338;8.520;2023-05-18T12:33:47;8.93;;;3.90;;
75112;SDS011;63692;47.338;8.520;2023-05-18T12:36:20;5.72;;;3.22;;
75112;SDS011;63692;47.338;8.520;2023-05-18T12:38:54;9.90;;;3.90;;
75112;SDS011;63692;47.338;8.520;2023-05-18T12:41:28;9.60;;;4.07;;
75112;SDS011;63692;47.338;8.520;2023-05-18T12:43:58;8.98;;;5.15;;
75112;SDS011;63692;47.338;8.520;2023-05-18T12:46:29;10.20;;;4.68;;
75112;SDS011;63692;47.338;8.520;2023-05-18T12:49:04;7.60;;;3.40;;
75112;SDS011;63692;47.338;8.520;2023-05-18T12:51:53;10.90;;;3.33;;
75112;SDS011;63692;47.338;8.520;2023-05-18T12:54:31;5.93;;;3.20;;
75112;SDS011;63692;47.338;8.520;2023-05-18T12:57:24;8.02;;;3.22;;
75112;SDS011;63692;47.338;8.520;2023-05-18T13:02:35;7.90;;;3.10;;
75112;SDS011;63692;47.338;8.520;2023-05-18T13:05:16;7.93;;;3.35;;
75112;SDS011;63692;47.338;8.520;2023-05-18T13:07:50;6.55;;;3.15;;
75112;SDS011;63692;47.338;8.520;2023-05-18T13:10:41;6.40;;;3.00;;
75112;SDS011;63692;47.338;8.520;2023-05-18T13:13:17;7.95;;;3.15;;
75112;SDS011;63692;47.338;8.520;2023-05-18T13:16:08;7.07;;;3.55;;
75112;SDS011;63692;47.338;8.520;2023-05-18T13:18:44;8.02;;;3.20;;
75112;SDS011;63692;47.338;8.520;2023-05-18T13:21:32;9.70;;;3.08;;
75112;SDS011;63692;47.338;8.520;2023-05-18T13:24:08;8.38;;;3.20;;
75112;SDS011;63692;47.338;8.520;2023-05-18T13:26:50;8.02;;;3.30;;
75112;SDS011;63692;47.338;8.520;2023-05-18T13:29:26;11.43;;;3.30;;
75112;SDS011;63692;47.338;8.520;2023-05-18T13:31:59;4.93;;;2.67;;
75112;SDS011;63692;47.338;8.520;2023-05-18T13:34:39;8.35;;;4.28;;
75112;SDS011;63692;47.338;8.520;2023-05-18T13:37:30;7.65;;;2.70;;
75112;SDS011;63692;47.338;8.520;2023-05-18T13:40:20;7.03;;;2.55;;
75112;SDS011;63692;47.338;8.520;2023-05-18T13:45:28;7.88;;;2.50;;
75112;SDS011;63692;47.338;8.520;2023-05-18T13:47:55;5.88;;;2.60;;
75112;SDS011;63692;47.338;8.520;2023-05-18T13:50:26;6.20;;;2.55;;
75112;SDS011;63692;47.338;8.520;2023-05-18T13:53:03;8.25;;;2.70;;
75112;SDS011;63692;47.338;8.520;2023-05-18T13:55:40;7.35;;;2.42;;
75112;SDS011;63692;47.338;8.520;2023-05-18T13:58:29;8.23;;;2.83;;
75112;SDS011;63692;47.338;8.520;2023-05-18T14:01:03;7.63;;;2.85;;
75112;SDS011;63692;47.338;8.520;2023-05-18T14:03:42;6.28;;;2.47;;
75112;SDS011;63692;47.338;8.520;2023-05-18T14:06:17;5.80;;;2.50;;
75112;SDS011;63692;47.338;8.520;2023-05-18T14:16:25;5.75;;;2.40;;
75112;SDS011;63692;47.338;8.520;2023-05-18T14:18:54;9.35;;;3.20;;
75112;SDS011;63692;47.338;8.520;2023-05-18T14:26:33;5.32;;;2.70;;
75112;SDS011;63692;47.338;8.520;2023-05-18T14:32:16;10.13;;;2.40;;
75112;SDS011;63692;47.338;8.520;2023-05-18T14:34:49;6.45;;;2.60;;
75112;SDS011;63692;47.338;8.520;2023-05-18T14:37:25;8.60;;;2.40;;
75112;SDS011;63692;47.338;8.520;2023-05-18T14:39:56;7.40;;;2.50;;
75112;SDS011;63692;47.338;8.520;2023-05-18T14:42:24;5.75;;;2.50;;
75112;SDS011;63692;47.338;8.520;2023-05-18T14:44:51;6.95;;;2.30;;
75112;SDS011;63692;47.338;8.520;2023-05-18T14:47:31;6.05;;;2.53;;
75112;SDS011;63692;47.338;8.520;2023-05-18T14:50:13;8.25;;;2.83;;
75112;SDS011;63692;47.338;8.520;2023-05-18T14:52:42;7.90;;;2.50;;
75112;SDS011;63692;47.338;8.520;2023-05-18T14:55:20;8.63;;;2.55;;
75112;SDS011;63692;47.338;8.520;2023-05-18T14:57:54;6.65;;;2.70;;
75112;SDS011;63692;47.338;8.520;2023-05-18T15:00:31;7.10;;;2.40;;
75112;SDS011;63692;47.338;8.520;2023-05-18T15:03:07;7.97;;;2.80;;
75112;SDS011;63692;47.338;8.520;2023-05-18T15:05:42;7.05;;;2.38;;
75112;SDS011;63692;47.338;8.520;2023-05-18T15:10:54;7.90;;;2.70;;
75112;SDS011;63692;47.338;8.520;2023-05-18T15:13:34;8.95;;;2.95;;
75112;SDS011;63692;47.338;8.520;2023-05-18T15:16:03;6.00;;;2.35;;
75112;SDS011;63692;47.338;8.520;2023-05-18T15:18:37;6.75;;;2.80;;
75112;SDS011;63692;47.338;8.520;2023-05-18T15:21:11;8.43;;;2.78;;
75112;SDS011;63692;47.338;8.520;2023-05-18T15:23:45;7.07;;;2.85;;
75112;SDS011;63692;47.338;8.520;2023-05-18T15:26:27;11.95;;;4.38;;
75112;SDS011;63692;47.338;8.520;2023-05-18T15:28:58;6.40;;;2.88;;
75112;SDS011;63692;47.338;8.520;2023-05-18T15:31:36;5.53;;;2.60;;
75112;SDS011;63692;47.338;8.520;2023-05-18T15:41:43;7.75;;;2.67;;
75112;SDS011;63692;47.338;8.520;2023-05-18T15:44:09;6.60;;;2.72;;
75112;SDS011;63692;47.338;8.520;2023-05-18T15:46:34;6.05;;;2.47;;
75112;SDS011;63692;47.338;8.520;2023-05-18T16:06:49;8.52;;;3.20;;
75112;SDS011;63692;47.338;8.520;2023-05-18T16:09:24;8.43;;;2.80;;
75112;SDS011;63692;47.338;8.520;2023-05-18T16:12:10;12.60;;;3.20;;
75112;SDS011;63692;47.338;8.520;2023-05-18T16:14:40;10.00;;;2.85;;
75112;SDS011;63692;47.338;8.520;2023-05-18T16:17:14;6.85;;;2.92;;
75112;SDS011;63692;47.338;8.520;2023-05-18T16:19:52;5.72;;;2.50;;
75112;SDS011;63692;47.338;8.520;2023-05-18T16:22:20;9.25;;;2.83;;
75112;SDS011;63692;47.338;8.520;2023-05-18T16:25:01;7.00;;;3.13;;
75112;SDS011;63692;47.338;8.520;2023-05-18T16:27:41;11.63;;;3.70;;
75112;SDS011;63692;47.338;8.520;2023-05-18T16:32:42;14.13;;;4.25;;
75112;SDS011;63692;47.338;8.520;2023-05-18T16:35:08;6.57;;;2.83;;
75112;SDS011;63692;47.338;8.520;2023-05-18T16:37:37;8.70;;;3.42;;
75112;SDS011;63692;47.338;8.520;2023-05-18T16:40:03;7.95;;;3.00;;
75112;SDS011;63692;47.338;8.520;2023-05-18T16:42:30;9.48;;;3.10;;
75112;SDS011;63692;47.338;8.520;2023-05-18T16:44:56;10.30;;;3.90;;
75112;SDS011;63692;47.338;8.520;2023-05-18T16:47:22;9.57;;;3.42;;
75112;SDS011;63692;47.338;8.520;2023-05-18T16:49:50;17.40;;;5.40;;
75112;SDS011;63692;47.338;8.520;2023-05-18T16:52:15;28.33;;;9.35;;
75112;SDS011;63692;47.338;8.520;2023-05-18T16:54:42;32.20;;;10.77;;
75112;SDS011;63692;47.338;8.520;2023-05-18T16:57:11;25.58;;;8.95;;
75112;SDS011;63692;47.338;8.520;2023-05-18T16:59:39;20.40;;;7.40;;
75112;SDS011;63692;47.338;8.520;2023-05-18T17:02:05;26.30;;;7.82;;
75112;SDS011;63692;47.338;8.520;2023-05-18T17:04:36;19.85;;;6.47;;
75112;SDS011;63692;47.338;8.520;2023-05-18T17:07:05;10.52;;;3.67;;
75112;SDS011;63692;47.338;8.520;2023-05-18T17:09:31;15.80;;;4.82;;
75112;SDS011;63692;47.338;8.520;2023-05-18T17:12:07;14.65;;;5.00;;
75112;SDS011;63692;47.338;8.520;2023-05-18T17:14:33;13.25;;;4.90;;
75112;SDS011;63692;47.338;8.520;2023-05-18T17:16:59;12.48;;;4.28;;
75112;SDS011;63692;47.338;8.520;2023-05-18T17:19:25;11.18;;;4.25;;
75112;SDS011;63692;47.338;8.520;2023-05-18T17:21:51;10.73;;;3.80;;
75112;SDS011;63692;47.338;8.520;2023-05-18T17:24:16;11.85;;;4.30;;
75112;SDS011;63692;47.338;8.520;2023-05-18T17:26:42;11.05;;;3.50;;
75112;SDS011;63692;47.338;8.520;2023-05-18T17:29:08;6.97;;;3.10;;
75112;SDS011;63692;47.338;8.520;2023-05-18T17:31:33;13.30;;;4.20;;
75112;SDS011;63692;47.338;8.520;2023-05-18T17:33:59;9.65;;;3.40;;
75112;SDS011;63692;47.338;8.520;2023-05-18T17:36:25;8.95;;;3.50;;
75112;SDS011;63692;47.338;8.520;2023-05-18T17:38:50;10.23;;;3.47;;
75112;SDS011;63692;47.338;8.520;2023-05-18T17:41:16;9.55;;;3.75;;
75112;SDS011;63692;47.338;8.520;2023-05-18T17:43:45;8.75;;;3.40;;
75112;SDS011;63692;47.338;8.520;2023-05-18T17:46:10;8.60;;;3.35;;
75112;SDS011;63692;47.338;8.520;2023-05-18T17:48:36;8.15;;;2.75;;
75112;SDS011;63692;47.338;8.520;2023-05-18T17:51:02;7.32;;;3.35;;
75112;SDS011;63692;47.338;8.520;2023-05-18T17:53:27;11.60;;;3.85;;
75112;SDS011;63692;47.338;8.520;2023-05-18T17:55:53;11.82;;;3.53;;
75112;SDS011;63692;47.338;8.520;2023-05-18T17:58:19;7.00;;;3.05;;
75112;SDS011;63692;47.338;8.520;2023-05-18T18:00:45;7.88;;;3.08;;
75112;SDS011;63692;47.338;8.520;2023-05-18T18:03:11;8.43;;;3.13;;
75112;SDS011;63692;47.338;8.520;2023-05-18T18:05:37;7.88;;;3.50;;
75112;SDS011;63692;47.338;8.520;2023-05-18T18:08:02;7.07;;;3.08;;
75112;SDS011;63692;47.338;8.520;2023-05-18T18:10:28;7.22;;;3.35;;
75112;SDS011;63692;47.338;8.520;2023-05-18T18:12:55;8.63;;;3.15;;
75112;SDS011;63692;47.338;8.520;2023-05-18T18:15:21;10.20;;;2.92;;
75112;SDS011;63692;47.338;8.520;2023-05-18T18:17:51;7.10;;;2.95;;
75112;SDS011;63692;47.338;8.520;2023-05-18T18:20:20;7.47;;;2.95;;
75112;SDS011;63692;47.338;8.520;2023-05-18T18:22:46;8.48;;;3.35;;
75112;SDS011;63692;47.338;8.520;2023-05-18T18:25:12;6.80;;;2.90;;
75112;SDS011;63692;47.338;8.520;2023-05-18T18:27:38;7.50;;;2.88;;
75112;SDS011;63692;47.338;8.520;2023-05-18T18:30:04;7.07;;;2.80;;
75112;SDS011;63692;47.338;8.520;2023-05-18T18:32:31;9.50;;;3.28;;
75112;SDS011;63692;47.338;8.520;2023-05-18T18:34:57;10.57;;;3.00;;
75112;SDS011;63692;47.338;8.520;2023-05-18T18:37:22;6.70;;;3.05;;
75112;SDS011;63692;47.338;8.520;2023-05-18T18:39:48;6.00;;;2.72;;
75112;SDS011;63692;47.338;8.520;2023-05-18T18:42:14;5.85;;;2.58;;
75112;SDS011;63692;47.338;8.520;2023-05-18T18:44:40;6.78;;;3.00;;
75112;SDS011;63692;47.338;8.520;2023-05-18T18:47:05;8.50;;;2.90;;
75112;SDS011;63692;47.338;8.520;2023-05-18T18:49:31;7.38;;;3.45;;
75112;SDS011;63692;47.338;8.520;2023-05-18T18:51:57;6.88;;;2.85;;
75112;SDS011;63692;47.338;8.520;2023-05-18T18:54:23;8.25;;;2.95;;
75112;SDS011;63692;47.338;8.520;2023-05-18T18:56:50;8.60;;;2.88;;
75112;SDS011;63692;47.338;8.520;2023-05-18T18:59:16;7.18;;;2.90;;
75112;SDS011;63692;47.338;8.520;2023-05-18T19:01:42;6.22;;;2.78;;
75112;SDS011;63692;47.338;8.520;2023-05-18T19:04:07;8.10;;;3.17;;
75112;SDS011;63692;47.338;8.520;2023-05-18T19:06:33;8.60;;;2.88;;
75112;SDS011;63692;47.338;8.520;2023-05-18T19:09:00;8.32;;;3.17;;
75112;SDS011;63692;47.338;8.520;2023-05-18T19:11:28;12.23;;;6.22;;
75112;SDS011;63692;47.338;8.520;2023-05-18T19:13:53;6.93;;;3.20;;
75112;SDS011;63692;47.338;8.520;2023-05-18T19:16:20;8.55;;;3.47;;
75112;SDS011;63692;47.338;8.520;2023-05-18T19:18:46;11.65;;;4.00;;
75112;SDS011;63692;47.338;8.520;2023-05-18T19:21:12;5.82;;;2.85;;
75112;SDS011;63692;47.338;8.520;2023-05-18T19:28:42;7.45;;;2.83;;
